Time;durP1;ratioP1;P1;durP2;ratioP2;P2;SDS_P1;SDS_P2;PMS_P1;PMS_P2;Temp;Humidity;BMP_temperature;BMP_pressure;BME280_temperature;BME280_humidity;BME280_pressure;Samples;Min_cycle;Max_cycle;Signal;HPM_P1;HPM_P2
2023/03/21 00:01:04;;;;;;;20.75;6.65;;;9.70;99.90;;;;;;5045608;28;20041;-46
2023/03/21 00:03:32;;;;;;;18.38;5.50;;;9.70;99.90;;;;;;5039655;28;20018;-44
2023/03/21 00:05:58;;;;;;;19.05;5.60;;;9.60;99.90;;;;;;5040869;28;20063;-49
2023/03/21 00:08:25;;;;;;;13.23;5.53;;;9.60;99.90;;;;;;5048168;28;20048;-47
2023/03/21 00:10:58;;;;;;;14.73;5.30;;;9.60;99.90;;;;;;5034995;28;20520;-46
2023/03/21 00:13:25;;;;;;;14.32;5.32;;;9.60;99.90;;;;;;5048103;28;20083;-49
2023/03/21 00:15:53;;;;;;;15.80;4.95;;;9.60;99.90;;;;;;5039081;28;20029;-46
2023/03/21 00:18:21;;;;;;;16.88;5.00;;;9.70;99.90;;;;;;5041995;28;20646;-47
2023/03/21 00:21:04;;;;;;;12.98;4.90;;;9.70;99.90;;;;;;5041568;28;20386;-49
2023/03/21 00:23:31;;;;;;;20.35;5.15;;;9.70;99.90;;;;;;5038150;28;20051;-49
2023/03/21 00:25:58;;;;;;;15.13;4.57;;;9.70;99.90;;;;;;5037457;28;20022;-44
2023/03/21 00:28:24;;;;;;;17.95;5.50;;;9.70;99.90;;;;;;5045947;28;20033;-50
2023/03/21 00:30:50;;;;;;;14.75;5.13;;;9.70;99.90;;;;;;5037254;28;20026;-44
2023/03/21 00:33:19;;;;;;;18.30;5.63;;;9.70;99.90;;;;;;5046099;28;20116;-45
2023/03/21 00:35:48;;;;;;;18.92;5.60;;;9.70;99.90;;;;;;5040272;28;20104;-49
2023/03/21 00:38:14;;;;;;;17.27;6.15;;;9.60;99.90;;;;;;5041204;28;20555;-52
2023/03/21 00:40:40;;;;;;;16.88;6.13;;;9.60;99.90;;;;;;5037789;28;20032;-48
2023/03/21 00:43:05;;;;;;;15.38;5.20;;;9.60;99.90;;;;;;5034542;28;20034;-55
2023/03/21 00:45:31;;;;;;;20.95;6.70;;;9.60;99.90;;;;;;5047558;28;20033;-54
2023/03/21 00:47:57;;;;;;;22.45;6.78;;;9.60;99.90;;;;;;5037569;28;20017;-49
2023/03/21 00:50:24;;;;;;;24.40;6.55;;;9.60;99.90;;;;;;5041837;28;20052;-46
2023/03/21 00:52:50;;;;;;;21.08;6.32;;;9.60;99.90;;;;;;5040141;28;20025;-47
2023/03/21 00:55:17;;;;;;;18.90;6.85;;;9.60;99.90;;;;;;5042752;28;20442;-48
2023/03/21 00:57:44;;;;;;;18.20;6.18;;;9.60;99.90;;;;;;5050054;28;20033;-46
2023/03/21 01:00:12;;;;;;;20.42;6.78;;;9.50;99.90;;;;;;5050227;28;20033;-50
2023/03/21 01:02:41;;;;;;;17.88;7.15;;;9.60;99.90;;;;;;5035932;28;20021;-48
2023/03/21 01:05:09;;;;;;;20.23;6.00;;;9.60;99.90;;;;;;5053520;28;20033;-47
2023/03/21 01:07:35;;;;;;;22.10;6.72;;;9.60;99.90;;;;;;5053713;28;20029;-50
2023/03/21 01:10:00;;;;;;;21.55;6.57;;;9.60;99.90;;;;;;5053309;28;20052;-53
2023/03/21 01:12:26;;;;;;;20.40;6.40;;;9.60;99.90;;;;;;5044234;28;20079;-48
2023/03/21 01:14:52;;;;;;;19.48;6.32;;;9.60;99.90;;;;;;5053638;28;20494;-47
2023/03/21 01:17:17;;;;;;;20.60;6.07;;;9.60;99.90;;;;;;5053491;28;20048;-46
2023/03/21 01:19:43;;;;;;;18.73;6.93;;;9.60;99.90;;;;;;5056465;28;20478;-47
2023/03/21 01:22:08;;;;;;;21.65;8.35;;;9.60;99.90;;;;;;5055758;28;20039;-51
2023/03/21 01:24:34;;;;;;;17.77;7.10;;;9.50;99.90;;;;;;5053459;28;20515;-53
2023/03/21 01:27:01;;;;;;;23.45;7.75;;;9.50;99.90;;;;;;5052851;28;20032;-45
2023/03/21 01:29:32;;;;;;;18.40;6.93;;;9.50;99.90;;;;;;5052651;28;20374;-47
2023/03/21 01:31:57;;;;;;;21.83;7.65;;;9.40;99.90;;;;;;5052451;28;20028;-50
2023/03/21 01:34:23;;;;;;;19.23;6.97;;;9.40;99.90;;;;;;5034207;28;20025;-53
2023/03/21 01:36:49;;;;;;;26.30;7.30;;;9.40;99.90;;;;;;5052598;28;20092;-50
2023/03/21 01:39:15;;;;;;;24.50;8.55;;;9.30;99.90;;;;;;5052465;28;20025;-46
2023/03/21 01:41:42;;;;;;;25.00;8.30;;;9.30;99.90;;;;;;5049112;28;20025;-50
2023/03/21 01:44:15;;;;;;;23.85;7.78;;;9.30;99.90;;;;;;5046001;28;20136;-51
2023/03/21 01:46:48;;;;;;;26.60;8.77;;;9.20;99.90;;;;;;5048653;28;20074;-46
2023/03/21 01:49:33;;;;;;;23.45;7.95;;;9.20;99.90;;;;;;5052883;28;20032;-47
2023/03/21 01:52:09;;;;;;;23.20;8.07;;;9.20;99.90;;;;;;5051590;28;20029;-50
2023/03/21 01:54:38;;;;;;;32.33;8.55;;;9.10;99.90;;;;;;5053068;28;20373;-47
2023/03/21 01:57:09;;;;;;;23.23;7.43;;;9.10;99.90;;;;;;5039045;28;20020;-46
2023/03/21 01:59:50;;;;;;;25.02;8.73;;;9.10;99.90;;;;;;5035075;28;20040;-48
2023/03/21 02:02:24;;;;;;;21.48;8.52;;;9.10;99.90;;;;;;5039287;28;20065;-45
2023/03/21 02:04:54;;;;;;;28.75;7.60;;;9.10;99.90;;;;;;5051715;28;20100;-46
2023/03/21 02:07:30;;;;;;;24.05;7.85;;;9.10;99.90;;;;;;5051452;28;20029;-50
2023/03/21 02:09:57;;;;;;;22.38;7.35;;;9.10;99.90;;;;;;5034796;28;20025;-47
2023/03/21 02:12:24;;;;;;;18.77;7.25;;;9.20;99.90;;;;;;5052307;28;20036;-49
2023/03/21 02:14:52;;;;;;;21.33;6.90;;;9.20;99.90;;;;;;5052431;28;20540;-57
2023/03/21 02:17:38;;;;;;;22.83;6.53;;;9.20;99.90;;;;;;5052633;28;20037;-53
2023/03/21 02:20:20;;;;;;;23.58;6.85;;;9.20;99.90;;;;;;5052546;28;20090;-49
2023/03/21 02:23:08;;;;;;;26.75;5.75;;;9.20;99.90;;;;;;5040446;28;20052;-52
2023/03/21 02:25:52;;;;;;;19.38;5.50;;;9.20;99.90;;;;;;5052581;28;20021;-52
2023/03/21 02:28:49;;;;;;;19.35;5.35;;;9.20;99.90;;;;;;5052660;28;20025;-51
2023/03/21 02:31:32;;;;;;;14.35;5.10;;;9.20;99.90;;;;;;5040092;28;20025;-49
2023/03/21 02:34:23;;;;;;;20.90;5.55;;;9.20;99.90;;;;;;5052286;28;20102;-50
2023/03/21 02:37:02;;;;;;;22.77;5.95;;;9.20;99.90;;;;;;5052699;28;20029;-51
2023/03/21 02:39:39;;;;;;;29.20;6.90;;;9.20;99.90;;;;;;5052422;28;20150;-52
2023/03/21 02:42:20;;;;;;;21.20;5.80;;;9.10;99.90;;;;;;5051812;28;20500;-49
2023/03/21 02:44:53;;;;;;;17.85;5.35;;;9.20;99.90;;;;;;5039348;28;20049;-46
2023/03/21 02:47:27;;;;;;;19.27;5.35;;;9.10;99.90;;;;;;5052412;28;20107;-46
2023/03/21 02:50:13;;;;;;;17.17;4.85;;;9.10;99.90;;;;;;5039318;28;20036;-46
2023/03/21 02:52:41;;;;;;;16.63;4.75;;;9.10;99.90;;;;;;5034221;28;20067;-51
2023/03/21 02:55:14;;;;;;;16.83;4.18;;;9.10;99.90;;;;;;5052360;28;20021;-46
2023/03/21 02:57:42;;;;;;;17.63;4.95;;;9.10;99.90;;;;;;5052156;28;20048;-49
2023/03/21 03:00:11;;;;;;;19.73;5.07;;;9.00;99.90;;;;;;5051810;28;20068;-51
2023/03/21 03:02:39;;;;;;;15.30;4.80;;;9.00;99.90;;;;;;5052029;28;20032;-49
2023/03/21 03:05:17;;;;;;;20.88;4.47;;;9.00;99.90;;;;;;5051705;28;20120;-47
2023/03/21 03:07:55;;;;;;;18.67;4.40;;;9.00;99.90;;;;;;5051791;28;20484;-49
2023/03/21 03:10:23;;;;;;;18.70;4.20;;;9.00;99.90;;;;;;5051619;28;20064;-51
2023/03/21 03:12:52;;;;;;;13.37;4.30;;;9.00;99.90;;;;;;5045797;28;20021;-48
2023/03/21 03:15:32;;;;;;;16.27;4.00;;;9.00;99.90;;;;;;5051804;28;20108;-50
2023/03/21 03:18:18;;;;;;;17.33;3.85;;;9.00;99.90;;;;;;5051489;28;20037;-53
2023/03/21 03:21:05;;;;;;;14.23;4.47;;;9.00;99.90;;;;;;5051528;28;20508;-51
2023/03/21 03:23:54;;;;;;;14.90;3.80;;;9.00;99.90;;;;;;5051084;28;20029;-51
2023/03/21 03:26:25;;;;;;;18.05;3.80;;;8.90;99.90;;;;;;5040952;28;20037;-48
2023/03/21 03:28:55;;;;;;;21.40;3.70;;;8.90;99.90;;;;;;5051597;28;20021;-45
2023/03/21 03:31:30;;;;;;;19.30;3.83;;;8.90;99.90;;;;;;5033550;28;20017;-46
2023/03/21 03:34:01;;;;;;;25.63;3.92;;;9.00;99.90;;;;;;5051406;28;20040;-46
2023/03/21 03:36:34;;;;;;;16.75;3.53;;;8.90;99.90;;;;;;5051464;28;20473;-45
2023/03/21 03:39:03;;;;;;;22.02;4.57;;;8.90;99.90;;;;;;5051232;28;20060;-46
2023/03/21 03:41:30;;;;;;;15.55;3.35;;;8.90;99.90;;;;;;5031628;28;20037;-47
2023/03/21 03:43:59;;;;;;;16.50;3.65;;;8.90;99.90;;;;;;5051299;28;20470;-46
2023/03/21 03:46:43;;;;;;;15.15;3.53;;;8.90;99.90;;;;;;5037712;28;20033;-47
2023/03/21 03:49:16;;;;;;;17.05;3.53;;;8.80;99.90;;;;;;5035511;28;20073;-47
2023/03/21 03:51:53;;;;;;;20.33;4.00;;;8.90;99.90;;;;;;5051017;28;20112;-51
2023/03/21 03:54:51;;;;;;;20.75;3.97;;;8.80;99.90;;;;;;5050556;28;20021;-48
2023/03/21 03:57:17;;;;;;;12.93;3.20;;;8.80;99.90;;;;;;5025981;28;20040;-48
2023/03/21 03:59:45;;;;;;;16.90;3.83;;;8.70;99.90;;;;;;5050488;28;20467;-45
2023/03/21 04:02:11;;;;;;;11.43;3.03;;;8.70;99.90;;;;;;5051117;28;20028;-51
2023/03/21 04:04:37;;;;;;;16.10;3.35;;;8.70;99.90;;;;;;5033007;28;20028;-45
2023/03/21 04:07:05;;;;;;;19.50;3.78;;;8.70;99.90;;;;;;5032870;28;20048;-54
2023/03/21 04:09:31;;;;;;;15.80;3.30;;;8.70;99.90;;;;;;5050716;28;20537;-47
2023/03/21 04:11:57;;;;;;;21.80;5.55;;;8.60;99.90;;;;;;5040054;28;20079;-47
2023/03/21 04:14:24;;;;;;;17.75;3.17;;;8.70;99.90;;;;;;5050952;28;20033;-48
2023/03/21 04:16:51;;;;;;;14.93;3.35;;;8.70;99.90;;;;;;5050359;28;20033;-43
2023/03/21 04:19:17;;;;;;;15.98;3.40;;;8.70;99.90;;;;;;5050585;28;20032;-46
2023/03/21 04:21:43;;;;;;;14.82;3.40;;;8.60;99.90;;;;;;5032682;28;20044;-48
2023/03/21 04:24:10;;;;;;;16.77;3.40;;;8.60;99.90;;;;;;5031014;28;20402;-50
2023/03/21 04:26:38;;;;;;;14.70;3.25;;;8.60;99.90;;;;;;5050468;28;20111;-46
2023/03/21 04:29:04;;;;;;;14.52;3.00;;;8.60;99.90;;;;;;5050331;28;20021;-49
2023/03/21 04:31:32;;;;;;;14.63;2.92;;;8.70;99.90;;;;;;5050579;28;20113;-47
2023/03/21 04:33:59;;;;;;;12.25;3.38;;;8.70;99.90;;;;;;5033393;28;20027;-49
2023/03/21 04:36:37;;;;;;;10.63;3.55;;;8.60;99.90;;;;;;5054606;28;20103;-51
2023/03/21 04:39:10;;;;;;;15.50;3.08;;;8.70;99.90;;;;;;5054541;28;20032;-48
2023/03/21 04:41:38;;;;;;;13.18;2.75;;;8.70;99.90;;;;;;5053670;28;20098;-48
2023/03/21 04:44:04;;;;;;;10.07;2.70;;;8.70;99.90;;;;;;5036564;28;20506;-52
2023/03/21 04:46:29;;;;;;;13.70;2.78;;;8.70;99.90;;;;;;5054592;28;20112;-50
2023/03/21 04:48:55;;;;;;;13.13;2.58;;;8.70;99.90;;;;;;5054289;28;20429;-53
2023/03/21 04:51:20;;;;;;;13.88;2.85;;;8.80;99.90;;;;;;5054869;28;20017;-50
2023/03/21 04:53:48;;;;;;;17.80;3.78;;;8.80;99.90;;;;;;5054487;28;20371;-49
2023/03/21 04:56:14;;;;;;;20.83;3.08;;;8.80;99.90;;;;;;5054396;28;20064;-52
2023/03/21 04:58:41;;;;;;;13.52;3.50;;;8.90;99.90;;;;;;5054260;28;20390;-48
2023/03/21 05:01:07;;;;;;;18.92;4.13;;;8.90;99.90;;;;;;5054537;28;20056;-47
2023/03/21 05:03:38;;;;;;;18.15;4.53;;;8.80;99.90;;;;;;5054040;28;20029;-52
2023/03/21 05:06:08;;;;;;;19.13;4.20;;;8.90;99.90;;;;;;5054047;28;20033;-51
2023/03/21 05:08:35;;;;;;;16.70;3.95;;;8.90;99.90;;;;;;5036221;28;20052;-54
2023/03/21 05:11:01;;;;;;;16.73;4.38;;;8.90;99.90;;;;;;5049440;28;20037;-55
2023/03/21 05:13:27;;;;;;;15.10;3.72;;;8.90;99.90;;;;;;5054090;28;20033;-48
2023/03/21 05:15:53;;;;;;;10.77;3.28;;;8.90;99.90;;;;;;5053837;28;20087;-49
2023/03/21 05:18:23;;;;;;;17.95;3.10;;;8.90;99.90;;;;;;5053762;28;20485;-52
2023/03/21 05:20:53;;;;;;;11.95;3.03;;;8.90;99.90;;;;;;5053887;28;20036;-50
2023/03/21 05:23:19;;;;;;;;;;;8.90;99.90;;;;;;5054247;28;20025;-52
2023/03/21 05:25:45;;;;;;;18.63;3.08;;;8.90;99.90;;;;;;5053813;28;20384;-48
2023/03/21 05:28:10;;;;;;;15.52;3.20;;;8.90;99.90;;;;;;5053409;28;20033;-51
2023/03/21 05:30:36;;;;;;;17.25;3.30;;;8.90;99.90;;;;;;5053552;28;20381;-47
2023/03/21 05:33:02;;;;;;;13.85;3.30;;;8.90;99.90;;;;;;5035551;28;20469;-53
2023/03/21 05:35:28;;;;;;;15.98;4.28;;;8.90;99.90;;;;;;5053404;28;20071;-56
2023/03/21 05:37:54;;;;;;;17.92;3.10;;;8.90;99.90;;;;;;5053510;28;20393;-51
2023/03/21 05:40:20;;;;;;;15.65;3.85;;;8.90;99.90;;;;;;5051477;28;20030;-54
2023/03/21 05:42:46;;;;;;;17.40;3.20;;;8.90;99.90;;;;;;5042526;28;20033;-51
2023/03/21 05:45:12;;;;;;;19.30;4.60;;;8.80;99.90;;;;;;5053076;28;20145;-52
2023/03/21 05:47:38;;;;;;;15.68;3.88;;;8.80;99.90;;;;;;5035101;28;20059;-54
2023/03/21 05:50:04;;;;;;;15.10;4.07;;;8.70;99.90;;;;;;5053285;28;20068;-49
2023/03/21 05:52:30;;;;;;;15.48;4.07;;;8.70;99.90;;;;;;5053246;28;20063;-49
2023/03/21 05:54:55;;;;;;;13.32;4.03;;;8.70;99.90;;;;;;5053299;28;20144;-46
2023/03/21 05:57:21;;;;;;;20.45;5.28;;;8.70;99.90;;;;;;5053079;28;20496;-50
2023/03/21 05:59:47;;;;;;;24.02;4.38;;;8.60;99.90;;;;;;5052853;28;20106;-50
2023/03/21 06:02:12;;;;;;;23.67;4.78;;;8.70;99.90;;;;;;5034984;28;20056;-50
2023/03/21 06:04:38;;;;;;;20.67;4.53;;;8.70;99.90;;;;;;5053168;28;20032;-52
2023/03/21 06:07:04;;;;;;;21.85;4.32;;;8.70;99.90;;;;;;5052958;28;20762;-49
2023/03/21 06:09:30;;;;;;;19.98;4.10;;;8.80;99.90;;;;;;5052890;28;20413;-48
2023/03/21 06:11:56;;;;;;;15.68;3.60;;;8.80;99.90;;;;;;5051609;28;20025;-50
2023/03/21 06:14:23;;;;;;;16.80;4.57;;;8.80;99.90;;;;;;5052778;28;20033;-53
2023/03/21 06:16:49;;;;;;;15.20;3.70;;;8.80;99.90;;;;;;5052438;28;20096;-50
2023/03/21 06:19:15;;;;;;;18.75;3.80;;;8.90;99.90;;;;;;5052655;28;20033;-46
2023/03/21 06:21:41;;;;;;;12.50;3.40;;;8.90;99.90;;;;;;5052553;28;20029;-50
2023/03/21 06:24:07;;;;;;;11.80;3.03;;;8.90;99.90;;;;;;5052578;28;20493;-49
2023/03/21 06:26:33;;;;;;;14.00;2.95;;;8.90;99.90;;;;;;5052648;28;20489;-53
2023/03/21 06:28:59;;;;;;;17.35;3.53;;;9.00;99.90;;;;;;5034632;28;20021;-47
2023/03/21 06:31:25;;;;;;;18.73;4.30;;;9.00;99.90;;;;;;5034703;28;20473;-53
2023/03/21 06:33:51;;;;;;;12.07;2.85;;;9.00;99.90;;;;;;5052201;28;20108;-47
2023/03/21 06:36:17;;;;;;;15.77;4.13;;;9.00;99.90;;;;;;5052412;28;20029;-49
2023/03/21 06:38:43;;;;;;;18.23;3.53;;;9.00;99.90;;;;;;5052318;28;20485;-47
2023/03/21 06:41:09;;;;;;;22.83;3.63;;;9.00;99.90;;;;;;5043874;28;20029;-48
2023/03/21 06:43:35;;;;;;;17.70;4.20;;;9.00;99.90;;;;;;5049222;28;20390;-47
2023/03/21 06:46:01;;;;;;;16.23;3.58;;;9.00;99.90;;;;;;5052353;28;20028;-51
2023/03/21 06:48:27;;;;;;;15.15;3.72;;;9.10;99.90;;;;;;5047528;28;20457;-46
2023/03/21 06:50:53;;;;;;;15.05;3.13;;;9.00;99.90;;;;;;5038216;28;20036;-46
2023/03/21 06:53:23;;;;;;;16.20;3.08;;;9.10;99.90;;;;;;5052337;28;20028;-46
2023/03/21 06:55:54;;;;;;;14.73;3.00;;;9.10;99.90;;;;;;5051863;28;20478;-46
2023/03/21 06:58:21;;;;;;;18.08;3.55;;;9.10;99.90;;;;;;5052023;28;20033;-47
2023/03/21 07:00:47;;;;;;;16.55;3.05;;;9.10;99.90;;;;;;5051696;28;20031;-48
2023/03/21 07:03:16;;;;;;;15.80;3.13;;;9.20;99.90;;;;;;5052115;28;20025;-47
2023/03/21 07:05:42;;;;;;;14.38;3.33;;;9.20;99.90;;;;;;5051777;28;20023;-47
2023/03/21 07:08:12;;;;;;;13.68;3.10;;;9.20;99.90;;;;;;5051767;28;20112;-52
2023/03/21 07:10:43;;;;;;;18.40;3.65;;;9.20;99.90;;;;;;5051508;28;20052;-50
2023/03/21 07:13:09;;;;;;;22.73;4.57;;;9.30;99.90;;;;;;5051848;28;20029;-47
2023/03/21 07:15:36;;;;;;;14.95;3.28;;;9.30;99.90;;;;;;5051543;28;20393;-47
2023/03/21 07:18:03;;;;;;;17.70;3.03;;;9.30;99.90;;;;;;5043247;28;20037;-47
2023/03/21 07:20:29;;;;;;;18.23;3.63;;;9.30;99.90;;;;;;5051527;28;20036;-48
2023/03/21 07:22:56;;;;;;;18.40;3.45;;;9.40;99.90;;;;;;5051346;28;20415;-48
2023/03/21 07:25:21;;;;;;;16.83;3.25;;;9.40;99.90;;;;;;5051505;28;20039;-52
2023/03/21 07:27:47;;;;;;;16.02;4.25;;;9.30;99.90;;;;;;5051426;28;20021;-46
2023/03/21 07:30:13;;;;;;;11.57;2.72;;;9.30;99.90;;;;;;5051284;28;20021;-48
2023/03/21 07:32:39;;;;;;;17.80;3.05;;;9.20;99.90;;;;;;5051348;28;20035;-52
2023/03/21 07:35:11;;;;;;;12.57;3.15;;;9.30;99.90;;;;;;5051109;28;20040;-45
2023/03/21 07:37:37;;;;;;;10.80;3.58;;;9.30;99.90;;;;;;5051159;28;20052;-47
2023/03/21 07:40:09;;;;;;;17.60;3.83;;;9.20;99.90;;;;;;5050985;28;20083;-46
2023/03/21 07:42:36;;;;;;;23.90;4.40;;;9.20;99.90;;;;;;5044805;28;20028;-51
2023/03/21 07:45:03;;;;;;;16.55;4.90;;;9.20;99.90;;;;;;5051173;28;20116;-50
2023/03/21 07:47:30;;;;;;;25.60;4.03;;;9.20;99.90;;;;;;5033235;28;20017;-46
2023/03/21 07:49:56;;;;;;;20.13;4.45;;;9.20;99.90;;;;;;5051153;28;20025;-52
2023/03/21 07:52:22;;;;;;;16.65;3.70;;;9.20;99.90;;;;;;5050921;28;20355;-50
2023/03/21 07:54:48;;;;;;;16.50;4.72;;;9.20;99.90;;;;;;5033045;28;20519;-47
2023/03/21 07:57:13;;;;;;;20.08;3.88;;;9.20;99.90;;;;;;5050752;28;20025;-48
2023/03/21 07:59:39;;;;;;;17.92;4.15;;;9.30;99.90;;;;;;5050798;28;20033;-49
2023/03/21 08:02:06;;;;;;;19.88;4.55;;;9.30;99.90;;;;;;5050855;28;20036;-48
2023/03/21 08:04:31;;;;;;;14.32;3.47;;;9.40;99.90;;;;;;5050747;28;20024;-48
2023/03/21 08:06:57;;;;;;;11.82;3.17;;;9.40;99.90;;;;;;5051012;28;20025;-50
2023/03/21 08:09:22;;;;;;;13.40;2.83;;;9.40;99.90;;;;;;5050257;28;20401;-48
2023/03/21 08:11:48;;;;;;;11.95;2.95;;;9.50;99.90;;;;;;5043708;28;20025;-48
2023/03/21 08:14:14;;;;;;;10.95;3.03;;;9.50;99.90;;;;;;5047009;28;20521;-51
2023/03/21 08:16:39;;;;;;;10.57;3.08;;;9.60;99.90;;;;;;5050820;28;20112;-53
2023/03/21 08:19:05;;;;;;;11.90;3.58;;;9.60;99.90;;;;;;5050198;28;20063;-48
2023/03/21 08:21:31;;;;;;;14.02;3.63;;;9.60;99.90;;;;;;5050468;28;20044;-47
2023/03/21 08:23:56;;;;;;;13.13;3.20;;;9.60;99.90;;;;;;5050785;28;20021;-49
2023/03/21 08:26:24;;;;;;;11.38;3.85;;;9.70;99.90;;;;;;5050416;28;20028;-46
2023/03/21 08:28:50;;;;;;;13.50;3.97;;;9.70;99.90;;;;;;5050491;28;20104;-47
2023/03/21 08:31:16;;;;;;;14.30;4.30;;;9.80;99.90;;;;;;5050449;28;20116;-47
2023/03/21 08:33:42;;;;;;;11.70;3.47;;;9.90;99.90;;;;;;5032742;28;20027;-48
2023/03/21 08:36:09;;;;;;;21.50;4.05;;;10.00;99.90;;;;;;5050574;28;20021;-46
2023/03/21 08:38:35;;;;;;;13.25;3.50;;;10.00;99.90;;;;;;5050247;28;20021;-47
2023/03/21 08:41:01;;;;;;;12.80;3.78;;;10.20;99.90;;;;;;5049994;28;20044;-52
2023/03/21 08:43:27;;;;;;;14.40;3.10;;;10.30;99.90;;;;;;5045255;28;20025;-47
2023/03/21 08:45:54;;;;;;;16.70;3.67;;;10.30;99.90;;;;;;5032555;28;20055;-47
2023/03/21 08:48:19;;;;;;;14.55;3.70;;;10.40;99.90;;;;;;5040644;28;20034;-53
2023/03/21 08:50:45;;;;;;;14.07;3.53;;;10.30;99.90;;;;;;5045980;28;20083;-53
2023/03/21 08:53:11;;;;;;;17.23;4.00;;;10.30;99.90;;;;;;5047466;28;20033;-52
2023/03/21 08:55:36;;;;;;;16.63;3.90;;;10.30;99.90;;;;;;5044644;28;20021;-50
2023/03/21 08:58:02;;;;;;;15.73;4.53;;;10.40;99.90;;;;;;5047594;28;20036;-50
2023/03/21 09:00:28;;;;;;;16.50;4.10;;;10.60;99.90;;;;;;5046125;28;20037;-52
2023/03/21 09:02:54;;;;;;;13.40;3.40;;;10.80;99.90;;;;;;5020743;28;20071;-51
2023/03/21 09:05:21;;;;;;;18.63;3.95;;;10.90;99.90;;;;;;5050215;28;20029;-50
2023/03/21 09:07:48;;;;;;;13.80;2.85;;;11.10;99.90;;;;;;5049970;28;20032;-46
2023/03/21 09:10:19;;;;;;;10.02;2.72;;;11.20;99.90;;;;;;5050180;28;20025;-52
2023/03/21 09:12:45;;;;;;;12.73;2.75;;;11.50;99.90;;;;;;5032427;28;20033;-49
2023/03/21 09:15:12;;;;;;;9.75;2.38;;;11.90;99.90;;;;;;5049974;28;20021;-52
2023/03/21 09:17:42;;;;;;;17.30;2.53;;;12.10;99.90;;;;;;5049886;28;20111;-48
2023/03/21 09:20:17;;;;;;;11.23;2.45;;;12.00;99.90;;;;;;5049953;28;20033;-53
2023/03/21 09:22:47;;;;;;;11.63;2.22;;;11.80;99.90;;;;;;5053504;28;20025;-55
2023/03/21 09:25:14;;;;;;;10.65;2.15;;;11.70;99.90;;;;;;5053607;28;20095;-50
2023/03/21 09:27:40;;;;;;;13.40;2.33;;;11.80;99.90;;;;;;5036214;28;20120;-50
2023/03/21 09:30:09;;;;;;;8.48;2.10;;;11.80;99.90;;;;;;5053649;28;20032;-53
2023/03/21 09:32:35;;;;;;;8.02;2.20;;;11.80;99.90;;;;;;5033844;28;20442;-48
2023/03/21 09:35:05;;;;;;;14.40;2.80;;;11.90;99.90;;;;;;5053754;28;20029;-47
2023/03/21 09:37:32;;;;;;;12.80;2.60;;;12.00;99.90;;;;;;5053603;28;20036;-49
2023/03/21 09:39:58;;;;;;;12.00;2.20;;;12.10;99.90;;;;;;5035468;28;20136;-49
2023/03/21 09:43:01;;;;;;;11.60;3.40;;;12.10;99.90;;;;;;5053086;28;20497;-45
2023/03/21 09:45:47;;;;;;;12.82;3.03;;;11.90;99.90;;;;;;5010044;28;20033;-48
2023/03/21 09:48:25;;;;;;;11.27;2.45;;;11.80;99.90;;;;;;5046842;28;20087;-46
2023/03/21 09:50:51;;;;;;;13.68;3.40;;;11.70;99.90;;;;;;5035238;28;20025;-49
2023/03/21 09:53:37;;;;;;;11.48;3.47;;;11.70;99.90;;;;;;5018972;28;20028;-47
2023/03/21 09:56:04;;;;;;;10.50;2.67;;;11.70;99.90;;;;;;5033833;28;20493;-49
2023/03/21 09:58:45;;;;;;;12.30;2.53;;;11.50;99.90;;;;;;5038274;28;20113;-47
2023/03/21 10:01:28;;;;;;;13.52;2.47;;;11.30;99.90;;;;;;5039448;28;20040;-54
2023/03/21 10:04:00;;;;;;;8.75;1.95;;;11.30;99.90;;;;;;5037721;28;20025;-50
2023/03/21 10:06:30;;;;;;;8.15;1.95;;;11.20;99.90;;;;;;5042699;28;20101;-54
2023/03/21 10:09:20;;;;;;;5.50;1.98;;;11.20;99.90;;;;;;5047346;28;20032;-51
2023/03/21 10:12:01;;;;;;;8.35;2.60;;;11.20;99.90;;;;;;5047389;28;20478;-52
2023/03/21 10:14:42;;;;;;;9.18;2.30;;;11.20;99.90;;;;;;5044556;28;20017;-52
2023/03/21 10:17:41;;;;;;;9.55;2.33;;;11.30;99.90;;;;;;5039880;28;20493;-48
2023/03/21 10:20:17;;;;;;;7.57;2.25;;;11.40;99.90;;;;;;5036321;28;20033;-47
2023/03/21 10:22:45;;;;;;;12.90;2.83;;;11.50;99.90;;;;;;5011418;28;20087;-45
2023/03/21 10:25:17;;;;;;;15.35;3.25;;;11.50;99.90;;;;;;5042402;28;20014;-45
2023/03/21 10:27:43;;;;;;;14.32;2.67;;;11.50;99.90;;;;;;5030623;28;20025;-48
2023/03/21 10:30:19;;;;;;;10.85;3.00;;;11.50;99.90;;;;;;5038076;28;20032;-47
2023/03/21 10:32:45;;;;;;;13.48;3.42;;;11.40;99.90;;;;;;5042942;28;20064;-46
2023/03/21 10:35:13;;;;;;;14.98;3.53;;;11.30;99.90;;;;;;5030578;28;20439;-49
2023/03/21 10:37:39;;;;;;;15.80;3.10;;;11.30;99.90;;;;;;5025351;28;20377;-46
2023/03/21 10:40:08;;;;;;;12.40;2.97;;;11.30;99.90;;;;;;5040225;28;20101;-46
2023/03/21 10:42:35;;;;;;;19.67;3.03;;;11.50;99.90;;;;;;5015892;28;20148;-47
2023/03/21 10:45:01;;;;;;;16.58;2.85;;;11.50;99.90;;;;;;5035997;28;20502;-47
2023/03/21 10:47:32;;;;;;;12.32;2.47;;;11.70;99.90;;;;;;5034417;28;20095;-47
2023/03/21 10:50:06;;;;;;;14.38;2.20;;;11.90;99.90;;;;;;5036934;28;20037;-51
2023/03/21 10:52:32;;;;;;;9.65;2.13;;;12.10;99.90;;;;;;5036877;28;20025;-47
2023/03/21 10:55:15;;;;;;;13.80;2.53;;;12.40;99.90;;;;;;5031021;28;20405;-50
2023/03/21 10:57:41;;;;;;;12.25;2.58;;;12.50;99.90;;;;;;5041783;28;20524;-46
2023/03/21 11:00:15;;;;;;;15.95;2.78;;;12.60;99.90;;;;;;5038710;28;20044;-45
2023/03/21 11:02:46;;;;;;;16.20;2.33;;;12.80;99.90;;;;;;5039050;28;20093;-46
2023/03/21 11:05:34;;;;;;;14.57;2.30;;;13.00;99.90;;;;;;5045025;28;20485;-49
2023/03/21 11:08:11;;;;;;;11.85;2.03;;;13.30;99.90;;;;;;5041354;28;20021;-47
2023/03/21 11:10:50;;;;;;;11.90;1.83;;;13.60;99.90;;;;;;5033432;28;20080;-48
2023/03/21 11:13:25;;;;;;;13.98;2.40;;;13.40;99.90;;;;;;5047814;28;20079;-48
2023/03/21 11:15:53;;;;;;;12.90;2.20;;;13.30;99.90;;;;;;5048035;28;20091;-48
2023/03/21 11:18:24;;;;;;;11.82;1.88;;;13.60;99.90;;;;;;5046138;28;20494;-45
2023/03/21 11:20:56;;;;;;;12.18;2.17;;;13.70;99.90;;;;;;5048827;28;20041;-53
2023/03/21 11:23:28;;;;;;;13.32;2.50;;;13.60;99.90;;;;;;5049847;28;20402;-46
2023/03/21 11:25:54;;;;;;;14.90;2.45;;;13.30;99.90;;;;;;5050422;28;20025;-46
2023/03/21 11:28:23;;;;;;;12.98;2.65;;;13.00;99.90;;;;;;5032429;28;20017;-46
2023/03/21 11:30:55;;;;;;;18.30;2.60;;;12.60;99.90;;;;;;5033340;28;20013;-50
2023/03/21 11:33:25;;;;;;;20.58;2.72;;;12.30;99.90;;;;;;5047391;28;20059;-48
2023/03/21 11:36:03;;;;;;;13.35;2.20;;;12.20;99.90;;;;;;5051374;28;20017;-45
2023/03/21 11:38:36;;;;;;;18.73;2.42;;;12.20;99.90;;;;;;5038666;28;20113;-45
2023/03/21 11:41:03;;;;;;;12.07;2.10;;;12.30;99.90;;;;;;5041807;28;20090;-52
2023/03/21 11:43:37;;;;;;;14.43;2.83;;;12.60;99.90;;;;;;5037771;28;20021;-52
2023/03/21 11:46:03;;;;;;;16.95;2.25;;;12.80;99.90;;;;;;5034928;28;20029;-47
2023/03/21 11:48:29;;;;;;;17.00;2.10;;;12.70;99.90;;;;;;5045162;28;20031;-47
2023/03/21 11:51:02;;;;;;;14.57;2.70;;;12.70;99.90;;;;;;5030396;28;20021;-47
2023/03/21 11:53:39;;;;;;;13.25;2.03;;;12.80;99.90;;;;;;5047951;28;20036;-47
2023/03/21 11:56:22;;;;;;;14.30;2.58;;;12.80;99.90;;;;;;5027889;28;20032;-48
2023/03/21 11:59:06;;;;;;;20.50;2.60;;;12.80;99.90;;;;;;5046806;28;20037;-48
2023/03/21 12:02:26;;;;;;;25.48;3.30;;;12.70;99.90;;;;;;5031856;28;20063;-47
2023/03/21 12:05:07;;;;;;;;;;;12.70;99.90;;;;;;5007260;28;20068;-53
2023/03/21 12:07:56;;;;;;;21.90;3.35;;;12.50;99.90;;;;;;5031830;28;19973;-49
2023/03/21 12:10:27;;;;;;;;;;;12.40;99.90;;;;;;5050213;28;20534;-46
2023/03/21 12:13:05;;;;;;;15.50;2.47;;;12.40;99.90;;;;;;5019630;28;19911;-46
2023/03/21 12:15:37;;;;;;;17.00;2.78;;;12.70;99.90;;;;;;5038872;28;20052;-51
2023/03/21 12:18:30;;;;;;;13.27;2.17;;;12.90;99.90;;;;;;5032737;28;20140;-49
2023/03/21 12:21:05;;;;;;;14.90;2.20;;;13.10;99.90;;;;;;5036488;28;20039;-49
2023/03/21 12:23:38;;;;;;;16.33;2.08;;;13.30;99.90;;;;;;5040945;28;20053;-46
2023/03/21 12:26:11;;;;;;;11.27;2.30;;;13.30;99.90;;;;;;5040746;28;20031;-46
2023/03/21 12:29:14;;;;;;;16.95;2.47;;;13.40;99.90;;;;;;5040533;28;20029;-51
2023/03/21 12:32:01;;;;;;;15.77;2.92;;;13.40;99.90;;;;;;5039454;28;20065;-45
2023/03/21 12:34:51;;;;;;;19.98;2.85;;;13.20;99.90;;;;;;5032739;28;20025;-50
2023/03/21 12:37:41;;;;;;;23.02;3.60;;;13.10;99.90;;;;;;5033060;28;20041;-47
2023/03/21 12:40:21;;;;;;;18.17;2.78;;;13.20;99.90;;;;;;5029599;28;20029;-48
2023/03/21 12:43:08;;;;;;;14.45;2.50;;;13.00;99.90;;;;;;5036501;28;20025;-47
2023/03/21 12:45:40;;;;;;;22.00;2.65;;;12.90;99.90;;;;;;5038511;28;20022;-45
2023/03/21 12:48:21;;;;;;;14.57;2.00;;;13.00;99.90;;;;;;5042756;28;20029;-49
2023/03/21 12:50:50;;;;;;;19.40;3.10;;;13.00;99.90;;;;;;5040763;28;20025;-47
2023/03/21 12:54:03;;;;;;;22.55;2.88;;;13.00;99.90;;;;;;5043097;28;20029;-54
2023/03/21 12:56:45;;;;;;;23.90;3.25;;;12.90;99.90;;;;;;4962767;28;20038;-49
2023/03/21 12:59:35;;;;;;;22.27;2.85;;;12.80;99.90;;;;;;4973143;28;20046;-46
2023/03/21 13:02:16;;;;;;;21.13;3.88;;;12.70;99.90;;;;;;5015224;28;20037;-48
2023/03/21 13:04:56;;;;;;;22.48;3.63;;;12.70;99.90;;;;;;5036281;28;20033;-46